Cowen, WV (26206)

4:43 PM EST on December 09, 2016 (GMT -0500)
FERN RIDGE MINIATURE DONKEY FARM , WEBSTER SPRINGS,WV | | Change Station

Elev 1919 ft 38.53 °N, 80.41 °W | Updated 7 minutes ago

Overcast
Overcast
22.5 °F
Feels Like 18 °F
N
3.7
Wind Variable Wind from South

Today
High -- | Low -- °F
--% Chance of Precip.
Yesterday
High -- | Low -- °F
Precip. -- in
Pressure 30.37 in
Visibility 10.0 miles
Clouds Overcast 3100 ft
Windchill 18 °F
Dew Point 14 °F
Humidity 71%
Rainfall 0.00 in
Snow Depth Not available.
7:28 AM 5:01 PM
Waxing Gibbous, 77% visible
METAR KLWB 092137Z AUTO 32005KT 10SM OVC031 M06/M12 A3037 RMK AO2
Pressure 30.37 in
Visibility 10.0 miles
Clouds Overcast 3100 ft
Windchill 18 °F
Dew Point 14 °F
Humidity 71%
Rainfall 0.00 in
Snow Depth Not available.
7:28 AM 5:01 PM
Waxing Gibbous, 77% visible
METAR KLWB 092137Z AUTO 32005KT 10SM OVC031 M06/M12 A3037 RMK AO2

10-Day Weather Forecast

Almanac

Astronomy

Dec. 09, 2016 Rise Set
Actual Time
Civil Twilight
Nautical Twilight
Astronomical Twilight
Moon
Length of Visible Light
Length of Day
Tomorrow will be .
, % of the Moon is Illuminated

Today's Extremes

State Highs State Lows

Community

WunderPhotos

Upload Photos

1,956,517 photos uploaded!

WunderBlog® & News

Nearby

Air Quality

  Air Quality AQ Index Pollutant
Not available.

Snow Depth

Station Depth Elevation

Earthquake Activity

City Distance Mag. Time & Date
Minimum magnitude displayed is 2.5.

Coastal Water Temperatures

Place Temperature

Stations

Nearby Weather Stations

Station Location Temp. Windchill Dew Point Humidity Wind Precip. Elev Updated Type
                   

Watches & Warnings

There are currently no watches in effect.